RJBB/KIX METAR and TAF weather

Enter ICAO airport designator
Station Type Date Time Source
RJBB METAR 2021/04/13 22:00 UTC NOAA

RJBB 132200Z 28012KT 9999 FEW008 SCT015 BKN025 15/13 Q1009 NOSIG


Station Type Date Time Source
RJBB Decoded METAR 2021/04/13 22:00 UTC NOAA

Kansai International Airport, Japan (RJBB) 34-25N 135-15E 8M
Apr 13, 2021 - 06:00 PM EDT / 2021.04.13 2200 UTC
Wind: from the W (280 degrees) at 14 MPH (12 KT):0
Visibility: greater than 7 mile(s):0
Sky conditions: mostly cloudy
Temperature: 59 F (15 C)
Dew Point: 55 F (13 C)
Relative Humidity: 87%
Pressure (altimeter): 29.80 in. Hg (1009 hPa)
ob: RJBB 132200Z 28012KT 9999 FEW008 SCT015 BKN025 15/13 Q1009 NOSIG
cycle: 22

Station Type Date Time Source
RJBB TAF 2021/04/13 21:03 UTC NOAA

TAF
AMD RJBB 132100Z 1321/1500 28013KT 9999 FEW020 SCT035
BECMG 1404/1406 36020KT

Example: see airport list